createdAt,value
2022-09-02T00:01:25.179Z,23.50
2022-09-02T00:03:56.167Z,23.50
2022-09-02T00:06:23.470Z,23.47
2022-09-02T00:08:51.238Z,23.47
2022-09-02T00:11:23.266Z,23.45
2022-09-02T00:13:50.976Z,23.46
2022-09-02T00:16:18.420Z,23.45
2022-09-02T00:18:46.443Z,23.48
2022-09-02T00:21:14.918Z,23.45
2022-09-02T00:23:43.746Z,23.40
2022-09-02T00:26:12.196Z,23.38
2022-09-02T00:28:48.835Z,23.46
2022-09-02T00:31:17.648Z,23.46
2022-09-02T00:33:45.081Z,23.55
2022-09-02T00:36:13.102Z,23.46
2022-09-02T00:38:40.961Z,23.53
2022-09-02T00:41:10.343Z,23.54
2022-09-02T00:43:40.714Z,23.58
2022-09-02T00:46:08.633Z,23.59
2022-09-02T00:48:41.398Z,23.55
2022-09-02T00:51:09.958Z,23.53
2022-09-02T00:53:39.587Z,23.54
2022-09-02T00:56:13.799Z,23.53
2022-09-02T00:58:43.560Z,23.53
2022-09-02T01:01:14.780Z,23.45
2022-09-02T01:03:42.361Z,23.48
2022-09-02T01:06:16.479Z,23.54
2022-09-02T01:08:49.632Z,23.54
2022-09-02T01:11:20.629Z,23.54
2022-09-02T01:14:37.935Z,23.44
2022-09-02T01:17:25.667Z,23.44
2022-09-02T01:20:01.896Z,23.36
2022-09-02T01:22:32.695Z,23.45
2022-09-02T01:25:09.204Z,23.46
2022-09-02T01:27:36.918Z,23.46
2022-09-02T01:30:06.844Z,23.38
2022-09-02T01:32:35.141Z,23.39
2022-09-02T01:35:02.259Z,23.43
2022-09-02T01:37:32.295Z,23.43
2022-09-02T01:40:00.387Z,23.33
2022-09-02T01:42:27.734Z,23.44
2022-09-02T01:44:55.003Z,23.44
2022-09-02T01:47:27.182Z,23.42
2022-09-02T01:49:55.254Z,23.40
2022-09-02T01:52:24.275Z,23.42
2022-09-02T01:54:51.774Z,23.43
2022-09-02T01:57:19.348Z,23.36
2022-09-02T01:59:46.712Z,23.35
2022-09-02T02:02:20.313Z,23.35
2022-09-02T02:04:49.090Z,23.19
2022-09-02T02:07:19.051Z,23.34
2022-09-02T02:09:46.736Z,23.29
2022-09-02T02:12:16.256Z,23.30
2022-09-02T02:14:43.830Z,23.31
2022-09-02T02:17:11.119Z,23.35
2022-09-02T02:19:40.590Z,23.30
2022-09-02T02:22:07.792Z,23.34
2022-09-02T02:24:34.840Z,23.34
2022-09-02T02:27:02.400Z,23.33
2022-09-02T02:29:30.262Z,23.34
2022-09-02T02:31:57.995Z,23.27
2022-09-02T02:34:25.689Z,23.34
2022-09-02T02:36:52.865Z,23.32
2022-09-02T02:39:20.868Z,23.27
2022-09-02T02:41:48.281Z,23.09
2022-09-02T02:44:16.826Z,23.18
2022-09-02T02:46:44.180Z,23.17
2022-09-02T02:49:12.164Z,23.10
2022-09-02T02:51:39.660Z,23.04
2022-09-02T02:54:06.956Z,23.15
2022-09-02T02:56:34.399Z,23.09
2022-09-02T02:59:03.526Z,23.02
2022-09-02T03:01:32.349Z,23.10
2022-09-02T03:04:00.142Z,23.08
2022-09-02T03:06:29.885Z,23.01
2022-09-02T03:08:57.751Z,22.98
2022-09-02T03:11:28.523Z,22.93
2022-09-02T03:13:57.062Z,22.97
2022-09-02T03:16:24.538Z,22.93
2022-09-02T03:18:53.504Z,22.83
2022-09-02T03:21:20.854Z,22.72
2022-09-02T03:23:48.754Z,22.72
2022-09-02T03:26:21.928Z,22.48
2022-09-02T03:28:50.399Z,22.64
2022-09-02T03:31:20.778Z,22.47
2022-09-02T03:33:48.139Z,22.44
2022-09-02T03:36:25.736Z,22.49
2022-09-02T03:38:53.643Z,22.50
2022-09-02T03:41:21.045Z,22.35
2022-09-02T03:43:48.857Z,22.45
2022-09-02T03:46:16.884Z,22.45
2022-09-02T03:48:45.906Z,22.53
2022-09-02T03:51:14.059Z,22.43
2022-09-02T03:53:42.258Z,22.43
2022-09-02T03:56:15.562Z,22.42
2022-09-02T03:58:44.732Z,22.33
2022-09-02T04:01:18.850Z,22.38
2022-09-02T04:03:46.727Z,22.30
2022-09-02T04:06:16.430Z,22.24
2022-09-02T04:08:45.185Z,22.25
2022-09-02T04:11:17.748Z,22.30
2022-09-02T04:13:48.587Z,22.30
2022-09-02T04:16:29.018Z,22.30
2022-09-02T04:19:02.289Z,22.34
2022-09-02T04:21:36.182Z,22.38
2022-09-02T04:24:06.092Z,22.34
2022-09-02T04:26:33.926Z,22.36
2022-09-02T04:29:02.119Z,22.37
2022-09-02T04:31:32.641Z,22.40
2022-09-02T04:34:00.755Z,22.42
2022-09-02T04:36:29.092Z,22.48
2022-09-02T04:39:01.613Z,22.46
2022-09-02T04:41:33.059Z,22.56
2022-09-02T04:44:05.135Z,22.66
2022-09-02T04:46:37.017Z,22.71
2022-09-02T04:49:09.234Z,22.80
2022-09-02T04:51:38.527Z,22.88
2022-09-02T04:54:08.159Z,22.92
2022-09-02T04:56:38.506Z,22.90
2022-09-02T04:59:07.985Z,22.75
2022-09-02T05:01:37.904Z,22.79
2022-09-02T05:04:11.630Z,22.75
2022-09-02T05:06:44.688Z,22.77
2022-09-02T05:09:16.991Z,22.76
2022-09-02T05:11:48.808Z,22.68
2022-09-02T05:14:17.631Z,22.73
2022-09-02T05:16:46.154Z,22.58
2022-09-02T05:19:16.677Z,22.62
2022-09-02T05:21:49.197Z,22.73
2022-09-02T05:24:26.755Z,22.83
2022-09-02T05:26:56.506Z,22.89
2022-09-02T05:29:26.188Z,22.92
2022-09-02T05:31:55.386Z,23.02
2022-09-02T05:34:24.111Z,23.09
2022-09-02T05:36:53.935Z,23.15
2022-09-02T05:39:21.382Z,23.27
2022-09-02T05:41:49.553Z,23.38
2022-09-02T05:44:17.850Z,23.53
2022-09-02T05:46:48.922Z,23.61
2022-09-02T05:49:18.180Z,23.68
2022-09-02T05:52:12.494Z,23.70
2022-09-02T05:54:43.753Z,23.77
2022-09-02T05:57:16.762Z,23.98
2022-09-02T06:00:07.937Z,24.06
2022-09-02T06:02:44.175Z,24.13
2022-09-02T06:05:38.347Z,24.10
2022-09-02T06:08:20.763Z,24.09
2022-09-02T06:10:48.005Z,24.19
2022-09-02T06:13:22.445Z,24.14
2022-09-02T06:15:51.655Z,24.11
2022-09-02T06:18:20.475Z,24.02
2022-09-02T06:20:51.832Z,24.23
2022-09-02T06:23:19.572Z,24.26
2022-09-02T06:25:49.088Z,24.28
2022-09-02T06:28:17.031Z,24.40
2022-09-02T06:30:48.731Z,24.53
2022-09-02T06:33:19.671Z,24.68
2022-09-02T06:35:48.446Z,24.81
2022-09-02T06:38:19.982Z,24.90
2022-09-02T06:40:51.511Z,25.06
2022-09-02T06:43:24.458Z,25.04
2022-09-02T06:46:15.844Z,25.05
2022-09-02T06:48:44.526Z,25.22
2022-09-02T06:51:43.376Z,25.21
2022-09-02T06:54:14.203Z,25.22
2022-09-02T06:56:47.257Z,25.07
2022-09-02T06:59:20.760Z,25.18
2022-09-02T07:01:52.153Z,25.25
2022-09-02T07:04:40.665Z,25.13
2022-09-02T07:07:12.001Z,25.35
2022-09-02T07:09:59.650Z,25.41
2022-09-02T07:12:28.081Z,25.52
2022-09-02T07:15:07.650Z,25.65
2022-09-02T07:17:40.437Z,25.90
2022-09-02T07:20:12.798Z,25.96
2022-09-02T07:22:47.834Z,26.05
2022-09-02T07:25:18.341Z,26.12
2022-09-02T07:27:51.609Z,26.25
2022-09-02T07:30:19.767Z,26.35
2022-09-02T07:32:52.517Z,26.37
2022-09-02T07:35:22.919Z,26.52
2022-09-02T07:37:51.233Z,26.54
2022-09-02T07:40:21.323Z,26.46
2022-09-02T07:42:48.832Z,26.43
2022-09-02T07:45:18.375Z,26.62
2022-09-02T07:47:46.508Z,26.45
2022-09-02T07:50:20.085Z,26.50
2022-09-02T07:52:58.208Z,26.39
2022-09-02T07:55:31.247Z,26.37
2022-09-02T07:58:00.103Z,26.38
2022-09-02T08:00:28.000Z,26.40
2022-09-02T08:03:01.905Z,26.42
2022-09-02T08:05:35.630Z,26.42
2022-09-02T08:08:04.562Z,26.60
2022-09-02T08:10:32.655Z,26.85
2022-09-02T08:13:00.946Z,26.94
2022-09-02T08:15:30.269Z,27.11
2022-09-02T08:17:58.413Z,27.23
2022-09-02T08:20:26.497Z,27.48
2022-09-02T08:23:05.057Z,27.64
2022-09-02T08:25:39.564Z,27.84
2022-09-02T08:28:08.070Z,27.81
2022-09-02T08:30:35.621Z,27.77
2022-09-02T08:33:03.041Z,27.86
2022-09-02T08:35:30.435Z,27.95
2022-09-02T08:38:01.519Z,27.94
2022-09-02T08:40:38.355Z,27.90
2022-09-02T08:43:38.513Z,27.98
2022-09-02T08:46:12.303Z,28.07
2022-09-02T08:49:09.128Z,28.18
2022-09-02T08:51:48.630Z,28.16
2022-09-02T08:54:29.758Z,28.20
2022-09-02T08:56:58.212Z,28.21
2022-09-02T08:59:28.349Z,28.29
2022-09-02T09:02:36.974Z,28.42
2022-09-02T09:05:15.809Z,28.15
2022-09-02T09:07:55.139Z,28.27
2022-09-02T09:10:40.896Z,28.18
2022-09-02T09:13:42.150Z,27.95
2022-09-02T09:16:33.590Z,27.72
2022-09-02T09:19:09.411Z,27.79
2022-09-02T09:21:37.327Z,27.76
2022-09-02T09:24:25.689Z,27.65
2022-09-02T09:26:55.064Z,27.78
2022-09-02T09:29:26.533Z,28.00
2022-09-02T09:31:59.054Z,28.18
2022-09-02T09:34:52.488Z,28.29
2022-09-02T09:37:36.136Z,28.46
2022-09-02T09:40:20.703Z,28.48
2022-09-02T09:42:55.699Z,28.44
2022-09-02T09:45:28.307Z,28.41
2022-09-02T09:48:07.704Z,28.46
2022-09-02T09:50:35.654Z,28.41
2022-09-02T09:53:21.050Z,28.33
2022-09-02T09:55:53.687Z,28.46
2022-09-02T09:58:44.110Z,28.47
2022-09-02T10:01:20.225Z,28.71
2022-09-02T10:03:58.176Z,28.89
2022-09-02T10:06:33.075Z,29.04
2022-09-02T10:09:09.265Z,29.05
2022-09-02T10:11:38.096Z,28.96
2022-09-02T10:14:08.884Z,29.04
2022-09-02T10:17:13.771Z,29.07
2022-09-02T10:20:06.054Z,29.03
2022-09-02T10:23:12.889Z,29.13
2022-09-02T10:26:05.593Z,29.29
2022-09-02T10:28:55.321Z,29.30
2022-09-02T10:32:04.084Z,29.31
2022-09-02T10:34:51.069Z,29.37
2022-09-02T10:37:26.349Z,29.36
2022-09-02T10:40:06.452Z,29.32
2022-09-02T10:43:07.913Z,29.58
2022-09-02T10:45:50.204Z,29.81
2022-09-02T10:49:04.824Z,29.95
2022-09-02T10:51:37.074Z,30.03
2022-09-02T10:54:42.067Z,29.97
2022-09-02T10:57:22.128Z,29.90
2022-09-02T11:00:10.550Z,29.92
2022-09-02T11:02:48.354Z,30.00
2022-09-02T11:05:25.786Z,29.93
2022-09-02T11:08:00.212Z,29.94
2022-09-02T11:10:37.043Z,29.94
2022-09-02T11:13:12.260Z,30.05
2022-09-02T11:15:50.161Z,30.03
2022-09-02T11:18:35.567Z,30.20
2022-09-02T11:21:17.471Z,30.22
2022-09-02T11:24:02.691Z,30.03
2022-09-02T11:26:38.642Z,30.03
2022-09-02T11:29:28.675Z,30.14
2022-09-02T11:32:15.838Z,30.33
2022-09-02T11:34:48.797Z,30.48
2022-09-02T11:37:43.173Z,30.49
2022-09-02T11:40:42.638Z,30.30
2022-09-02T11:43:17.619Z,30.23
2022-09-02T11:46:01.551Z,30.13
2022-09-02T11:48:51.416Z,29.52
2022-09-02T11:51:58.866Z,29.07
2022-09-02T11:54:35.995Z,28.91
2022-09-02T11:57:05.888Z,28.59
2022-09-02T11:59:51.477Z,28.64
2022-09-02T12:02:34.231Z,28.61
2022-09-02T12:05:30.245Z,28.57
2022-09-02T12:08:00.744Z,28.49
2022-09-02T12:10:47.815Z,28.60
2022-09-02T12:16:16.778Z,28.59
2022-09-02T12:18:54.368Z,28.49
2022-09-02T12:21:24.395Z,28.36
2022-09-02T12:23:52.700Z,28.34
2022-09-02T12:26:26.248Z,28.35
2022-09-02T12:29:10.127Z,28.20
2022-09-02T12:31:43.545Z,28.23
2022-09-02T12:34:26.041Z,28.23
2022-09-02T12:37:03.478Z,28.24
2022-09-02T12:39:35.551Z,28.17
2022-09-02T12:42:11.251Z,28.13
2022-09-02T12:44:44.706Z,28.09
2022-09-02T12:47:26.686Z,27.83
2022-09-02T12:50:07.286Z,27.85
2022-09-02T12:52:38.836Z,27.53
2022-09-02T12:55:21.321Z,26.88
2022-09-02T12:57:52.269Z,26.44
2022-09-02T13:00:51.574Z,25.88
2022-09-02T13:03:35.786Z,25.20
2022-09-02T13:06:31.444Z,25.06
2022-09-02T13:09:12.546Z,24.36
2022-09-02T13:12:10.776Z,24.20
2022-09-02T13:15:23.158Z,23.95
2022-09-02T13:18:11.022Z,23.69
2022-09-02T13:20:38.233Z,23.64
2022-09-02T13:23:31.619Z,23.48
2022-09-02T13:26:49.418Z,23.37
2022-09-02T13:29:55.310Z,23.16
2022-09-02T13:32:29.413Z,22.84
2022-09-02T13:35:01.263Z,22.59
2022-09-02T13:37:37.095Z,22.35
2022-09-02T13:40:23.813Z,22.05
2022-09-02T13:43:01.638Z,21.75
2022-09-02T13:45:32.511Z,21.61
2022-09-02T13:48:03.108Z,21.50
2022-09-02T13:50:32.295Z,21.37
2022-09-02T13:55:53.448Z,21.16
2022-09-02T13:58:46.902Z,21.10
2022-09-02T14:01:35.319Z,21.11
2022-09-02T14:04:10.243Z,21.14
2022-09-02T14:06:40.289Z,21.13
2022-09-02T14:09:18.440Z,21.28
2022-09-02T14:11:46.652Z,21.33
2022-09-02T14:14:15.539Z,21.40
2022-09-02T14:16:42.793Z,21.48
2022-09-02T14:19:17.294Z,21.52
2022-09-02T14:21:51.832Z,21.61
2022-09-02T14:24:23.135Z,21.65
2022-09-02T14:26:52.181Z,21.68
2022-09-02T14:29:21.399Z,21.76
2022-09-02T14:32:10.846Z,21.85
2022-09-02T14:34:40.738Z,22.03
2022-09-02T14:37:31.144Z,22.15
2022-09-02T14:40:11.680Z,22.17
2022-09-02T14:42:47.521Z,22.20
2022-09-02T14:45:24.635Z,22.41
2022-09-02T14:47:52.296Z,22.69
2022-09-02T14:50:22.488Z,22.79
2022-09-02T14:52:53.942Z,22.78
2022-09-02T14:55:45.901Z,22.94
2022-09-02T14:58:13.816Z,22.92
2022-09-02T15:00:41.001Z,22.91
2022-09-02T15:03:08.292Z,22.80
2022-09-02T15:05:36.046Z,22.91
2022-09-02T15:08:03.839Z,23.11
2022-09-02T15:10:31.529Z,23.03
2022-09-02T15:12:59.531Z,23.22
2022-09-02T15:15:27.895Z,23.20
2022-09-02T15:17:56.601Z,23.34
2022-09-02T15:20:24.725Z,23.43
2022-09-02T15:22:53.267Z,23.36
2022-09-02T15:25:21.134Z,23.30
2022-09-02T15:27:48.460Z,23.31
2022-09-02T15:30:15.703Z,23.30
2022-09-02T15:32:43.214Z,23.32
2022-09-02T15:35:11.845Z,23.26
2022-09-02T15:37:41.158Z,23.16
2022-09-02T15:40:10.444Z,23.21
2022-09-02T15:42:38.814Z,23.13
2022-09-02T15:45:09.065Z,23.23
2022-09-02T15:47:37.341Z,23.25
2022-09-02T15:50:06.316Z,23.27
2022-09-02T15:52:35.076Z,23.21
2022-09-02T15:55:03.217Z,23.13
2022-09-02T15:57:31.070Z,23.15
2022-09-02T15:59:58.748Z,23.16
2022-09-02T16:02:26.008Z,23.13
2022-09-02T16:04:53.239Z,23.11
2022-09-02T16:07:21.099Z,23.10
2022-09-02T16:09:48.263Z,23.06
2022-09-02T16:12:15.588Z,23.10
2022-09-02T16:14:42.983Z,23.06
2022-09-02T16:17:10.518Z,23.08
2022-09-02T16:19:38.191Z,23.03
2022-09-02T16:22:05.730Z,23.08
2022-09-02T16:24:33.129Z,23.13
2022-09-02T16:27:00.220Z,23.11
2022-09-02T16:29:28.248Z,23.10
2022-09-02T16:32:27.229Z,23.10
2022-09-02T16:34:43.328Z,22.98
2022-09-02T16:37:10.586Z,23.12
2022-09-02T16:39:37.877Z,23.17
2022-09-02T16:42:05.451Z,23.05
2022-09-02T16:44:34.276Z,22.93
2022-09-02T16:47:01.565Z,22.82
2022-09-02T16:49:28.829Z,22.79
2022-09-02T16:51:58.064Z,22.80
2022-09-02T16:54:31.428Z,22.89
2022-09-02T16:57:01.421Z,22.78
2022-09-02T16:59:28.824Z,22.72
2022-09-02T17:01:55.952Z,22.66
2022-09-02T17:04:23.476Z,22.60
2022-09-02T17:06:50.529Z,22.48
2022-09-02T17:09:17.777Z,22.52
2022-09-02T17:11:45.610Z,22.47
2022-09-02T17:14:16.834Z,22.47
2022-09-02T17:16:46.959Z,22.55
2022-09-02T17:19:21.190Z,22.53
2022-09-02T17:21:51.898Z,22.58
2022-09-02T17:24:21.453Z,22.64
2022-09-02T17:26:50.766Z,22.75
2022-09-02T17:32:07.765Z,22.86
2022-09-02T17:34:34.932Z,22.89
2022-09-02T17:37:02.354Z,23.06
2022-09-02T17:39:30.634Z,23.01
2022-09-02T17:41:57.907Z,23.00
2022-09-02T17:44:35.012Z,23.06
2022-09-02T17:47:07.038Z,23.02
2022-09-02T17:49:36.789Z,23.03
2022-09-02T17:52:08.384Z,23.09
2022-09-02T17:54:37.657Z,22.92
2022-09-02T17:57:20.981Z,23.08
2022-09-02T17:59:51.359Z,23.14
2022-09-02T18:02:35.813Z,22.99
2022-09-02T18:05:22.424Z,23.00
2022-09-02T18:08:28.405Z,23.05
2022-09-02T18:11:03.058Z,22.74
2022-09-02T18:13:35.800Z,23.05
2022-09-02T18:16:36.902Z,23.06
2022-09-02T18:19:35.784Z,23.07
2022-09-02T18:22:44.366Z,23.03
2022-09-02T18:25:12.133Z,23.03
2022-09-02T18:28:04.681Z,22.89
2022-09-02T18:30:46.569Z,22.81
2022-09-02T18:33:54.116Z,22.84
2022-09-02T18:36:30.791Z,22.92
2022-09-02T18:39:29.862Z,22.94
2022-09-02T18:42:42.510Z,22.92
2022-09-02T18:45:32.019Z,22.89
2022-09-02T18:48:36.945Z,22.93
2022-09-02T18:51:16.212Z,22.80
2022-09-02T18:53:48.597Z,22.72
2022-09-02T18:56:18.660Z,22.97
2022-09-02T18:58:49.373Z,22.81
2022-09-02T19:01:30.218Z,22.72
2022-09-02T19:04:01.185Z,22.60
2022-09-02T19:06:41.351Z,22.61
2022-09-02T19:09:14.893Z,22.64
2022-09-02T19:11:42.139Z,22.71
2022-09-02T19:14:09.313Z,22.79
2022-09-02T19:16:38.555Z,22.74
2022-09-02T19:19:10.549Z,22.64
2022-09-02T19:21:48.574Z,22.59
2022-09-02T19:24:23.979Z,22.71
2022-09-02T19:26:57.222Z,22.63
2022-09-02T19:29:25.513Z,22.57
2022-09-02T19:31:54.777Z,22.54
2022-09-02T19:34:35.791Z,22.48
2022-09-02T19:37:05.050Z,22.53
2022-09-02T19:39:33.729Z,22.52
2022-09-02T19:42:01.569Z,22.39
2022-09-02T19:44:29.472Z,22.42
2022-09-02T19:47:49.731Z,22.37
2022-09-02T19:49:50.098Z,22.46
2022-09-02T19:52:22.582Z,22.56
2022-09-02T19:54:49.907Z,22.71
2022-09-02T19:57:17.217Z,22.70
2022-09-02T19:59:45.333Z,22.72
2022-09-02T20:02:15.479Z,22.65
2022-09-02T20:04:44.189Z,22.59
2022-09-02T20:07:11.524Z,22.59
2022-09-02T20:09:38.774Z,22.53
2022-09-02T20:12:05.927Z,22.55
2022-09-02T20:14:35.114Z,22.50
2022-09-02T20:17:05.682Z,22.55
2022-09-02T20:19:33.018Z,22.61
2022-09-02T20:22:00.763Z,22.65
2022-09-02T20:24:34.235Z,22.54
2022-09-02T20:27:13.237Z,22.57
2022-09-02T20:30:11.151Z,22.52
2022-09-02T20:32:49.283Z,22.59
2022-09-02T20:35:38.235Z,22.65
2022-09-02T20:38:20.976Z,22.66
2022-09-02T20:40:59.196Z,22.65
2022-09-02T20:43:54.729Z,22.60
2022-09-02T20:46:57.927Z,22.57
2022-09-02T20:49:28.079Z,22.60
2022-09-02T20:52:17.379Z,22.53
2022-09-02T20:54:53.018Z,22.49
2022-09-02T20:57:42.639Z,22.47
2022-09-02T21:00:22.733Z,22.37
2022-09-02T21:03:11.505Z,22.25
2022-09-02T21:05:44.101Z,22.39
2022-09-02T21:08:30.343Z,22.39
2022-09-02T21:11:00.747Z,22.44
2022-09-02T21:13:38.512Z,22.53
2022-09-02T21:16:13.044Z,22.47
2022-09-02T21:18:51.335Z,22.32
2022-09-02T21:21:30.874Z,22.32
2022-09-02T21:24:08.467Z,22.34
2022-09-02T21:27:03.716Z,22.55
2022-09-02T21:29:51.005Z,22.65
2022-09-02T21:32:56.329Z,22.58
2022-09-02T21:35:28.315Z,22.53
2022-09-02T21:38:12.531Z,22.33
2022-09-02T21:41:13.587Z,22.31
2022-09-02T21:44:02.466Z,22.21
2022-09-02T21:46:44.891Z,22.22
2022-09-02T21:49:35.254Z,22.05
2022-09-02T21:52:29.934Z,22.07
2022-09-02T21:55:02.938Z,22.18
2022-09-02T21:57:36.524Z,22.06
2022-09-02T22:00:08.364Z,21.91
2022-09-02T22:03:16.387Z,21.70
2022-09-02T22:06:05.036Z,21.60
2022-09-02T22:08:50.756Z,21.72
2022-09-02T22:11:26.739Z,21.64
2022-09-02T22:13:58.995Z,21.51
2022-09-02T22:16:37.587Z,21.38
2022-09-02T22:19:10.094Z,21.33
2022-09-02T22:21:53.532Z,21.30
2022-09-02T22:24:28.582Z,21.27
2022-09-02T22:27:13.281Z,21.27
2022-09-02T22:29:59.877Z,21.29
2022-09-02T22:32:34.537Z,21.30
2022-09-02T22:35:16.938Z,21.28
2022-09-02T22:37:55.005Z,21.33
2022-09-02T22:40:28.036Z,21.41
2022-09-02T22:43:02.680Z,21.42
2022-09-02T22:45:55.523Z,21.39
2022-09-02T22:48:51.658Z,21.37
2022-09-02T22:52:03.318Z,21.48
2022-09-02T22:54:32.159Z,21.55
2022-09-02T22:57:47.614Z,21.56
2022-09-02T23:00:17.003Z,21.60
2022-09-02T23:03:05.683Z,21.55
2022-09-02T23:06:05.206Z,21.50
2022-09-02T23:08:37.148Z,21.50
2022-09-02T23:11:28.157Z,21.51
2022-09-02T23:14:11.229Z,21.40
2022-09-02T23:16:59.737Z,21.27
2022-09-02T23:19:34.971Z,20.82
2022-09-02T23:22:09.469Z,20.63
2022-09-02T23:24:47.239Z,20.35
2022-09-02T23:27:52.369Z,20.07
2022-09-02T23:30:19.658Z,19.89
2022-09-02T23:33:17.920Z,19.79
2022-09-02T23:36:11.813Z,19.41
2022-09-02T23:39:04.631Z,18.97
2022-09-02T23:41:31.858Z,18.58
2022-09-02T23:43:59.882Z,18.37
2022-09-02T23:46:42.481Z,18.42
2022-09-02T23:49:24.870Z,18.41
2022-09-02T23:52:10.349Z,18.46
2022-09-02T23:55:00.200Z,18.49
2022-09-02T23:57:46.182Z,18.34
